KJAU

Campbell County Airport

Jacksboro, Tennessee, USA
METAR KJAU 210355Z AUTO 21007KT 10SM CLR 25/22 A3002 RMK A01
Observed Flight Rules
Aug-21 @ 03:55 UTC (17 minutes ago) Visual Flight Rules
Wind Visibility Clouds
210° at 7 knots 10 miles
  • Clear skies
Temperatures Readings
Current 25°C / 77°F
Dewpoint 22°C / 72°F
Humidity 83%
Altimeter 30.02" Hg
Pressure 1017 hPa
Elevation 360
METAR KJAU 210355Z AUTO 21007KT 10SM CLR 25/22 A3002 RMK A01
Observed Flight Rules
Aug-21 @ 03:55 UTC
(17 minutes ago)
VFR
Wind Visibility
210° at 7 knots 10 miles
Clouds
  • Clear skies
Temperature Dewpoint
25°C / 77°F 22°C / 72°F
Humidity Altimeter Pressure
83% 30.02" Hg 1017 hPa